• Join FlightAware (Why Join?)
  • Login
  • US Flag 
09:46PM EDT


 

Airport Tracker/Info


-or-


 

Live Flight TrackerFlight Track Log ✈ EJA922 ✈ 03-Jul-2013 ✈ KIAD - KSDF

Flight Track Log - Related Links

Times and Time Zones

All times are in EDT time to prevent confusion due to time zone crossing. See the EJA922 flight status page for this flight to view local times or setup timezone preferences in your user account.

Time Position Orientation Groundspeed Altitude Reporting Facility
EDT Latitude Longitude Course Direction KTS MPH feet Rate Location/Type
06:19AM 38.8833 -77.4667 288° West 233 268 3,100  Level Potomac TRACON
06:20AM 38.8333 -77.5333 226° Southwest 241 277 3,900 2,640 Climbing Potomac TRACON
06:21AM 38.8078 -77.6803 257° West 256 295 10,200 3,000 Climbing Washington Center
06:22AM 38.7950 -77.8022 262° West 308 354 12,000 2,160 Climbing Washington Center
06:23AM 38.7925 -77.9356 269° West 353 406 14,500 2,100 Climbing Washington Center
06:24AM 38.8296 -78.1016 288° West  Level FlightAware Approximate
06:24AM 38.8211 -78.0669 286° West 374 430 16,300  Level Washington Center
06:25AM 38.8497 -78.1986 286° West 379 436 17,900 1,440 Climbing Washington Center
06:26AM 38.8528 -78.3400 272° West 384 442 19,200 1,320 Climbing Washington Center
06:27AM 38.8514 -78.4864 269° West 396 456 20,700 1,440 Climbing Washington Center
06:28AM 38.8500 -78.6278 269° West 401 461 22,200 1,380 Climbing Washington Center
06:29AM 38.8483 -78.7794 269° West 412 474 23,500 1,320 Climbing Washington Center
06:30AM 38.8442 -78.9314 268° West 422 486 24,800 1,260 Climbing Washington Center
06:31AM 38.8419 -79.0806 269° West 422 486 26,100 1,260 Climbing Washington Center
06:32AM 38.8353 -79.2347 267° West 422 486 27,400 1,260 Climbing Washington Center
06:33AM 38.8078 -79.3828 257° West 422 486 28,700 1,080 Climbing Washington Center
06:34AM 38.7872 -79.5014 258° West 427 491 29,700 1,260 Climbing Washington Center
06:35AM 38.7539 -79.6914 257° West 440 506 31,300 1,740 Climbing Washington Center
06:36AM 38.7278 -79.8389 257° West 446 513 33,300 1,980 Climbing Washington Center
06:37AM 38.7022 -79.9706 256° West 446 513 35,200 1,440 Climbing Washington Center
06:38AM 38.6736 -80.1231 257° West 446 513 36,200 1,020 Climbing Washington Center
06:39AM 38.6381 -80.3039 256° West 449 517 37,400 1,020 Climbing Indianapolis Center
06:40AM 38.6081 -80.4633 257° West 458 527 38,400 960 Climbing Indianapolis Center
06:41AM 38.5772 -80.6233 256° West 461 531 39,400 780 Climbing Indianapolis Center
06:42AM 38.5469 -80.7828 256° West 461 531 40,000 240 Climbing Indianapolis Center
06:43AM 38.5153 -80.9397 256° West 456 525 40,000  Level Indianapolis Center
06:45AM 38.4850 -81.0936 256° West 448 516 40,000  Level Indianapolis Center
06:46AM 38.4544 -81.2475 256° West 443 510 40,000  Level Indianapolis Center
06:47AM 38.4225 -81.4006 255° West 441 507 40,000  Level Indianapolis Center
06:48AM 38.3925 -81.5561 256° West 445 512 40,000  Level Indianapolis Center
06:49AM 38.3625 -81.7078 256° West 439 505 40,000 -720 Level Indianapolis Center
06:50AM 38.3250 -81.8544 252° West 434 499 38,600 -1,740 Descending Indianapolis Center
06:51AM 38.2825 -82.0058 250° West 449 517 36,600 -1,320 Descending Indianapolis Center
06:52AM 38.2397 -82.1606 251° West 461 531 36,000 -540 Descending Indianapolis Center
06:53AM 38.1969 -82.3117 250° West 455 524 35,600 -1,380 Descending Indianapolis Center
06:54AM 38.1536 -82.4611 250° West 450 518 33,300 -2,340 Descending Indianapolis Center
06:55AM 38.1075 -82.6231 250° West 469 540 30,900 -1,680 Descending Indianapolis Center
06:56AM 38.0639 -82.7767 250° West 465 535 30,000 -480 Descending Indianapolis Center
06:57AM 38.0189 -82.9317 250° West 469 540 30,000  Level Indianapolis Center
06:58AM 37.9725 -83.0883 249° West 476 548 30,000  Level Indianapolis Center
06:59AM 37.9264 -83.2481 250° West 482 555 30,000  Level Indianapolis Center
07:00AM 37.8803 -83.4031 249° West 475 547 30,000 -600 Level Indianapolis Center
07:01AM 37.8264 -83.5819 249° West 471 542 28,800 -1,200 Descending Indianapolis Center
07:02AM 37.7794 -83.7372 249° West 474 545 27,600 -1,320 Descending Indianapolis Center
07:03AM 37.7333 -83.8900 249° West 468 539 26,200 -1,380 Descending Indianapolis Center
07:04AM 37.6892 -84.0408 250° West 461 531 24,900 -1,140 Descending Indianapolis Center
07:05AM 37.6453 -84.1856 249° West 446 513 24,000 -480 Descending Indianapolis Center
07:06AM 37.6025 -84.3242 249° West 429 494 24,000  Level Indianapolis Center
07:07AM 37.5608 -84.4594 249° West 418 481 24,000 -1,200 Level Indianapolis Center
07:08AM 37.5189 -84.5961 249° West 416 479 21,600 -3,180 Descending Indianapolis Center
07:09AM 37.5158 -84.7464 269° West 441 507 17,500 -4,020 Descending Indianapolis Center
07:10AM 37.5903 -84.8678 308° West 441 507 13,400 -3,240 Descending Indianapolis Center
07:11AM 37.6689 -84.9747 313° West 418 481 11,000 -1,680 Descending Indianapolis Center
07:12AM 37.7567 -85.0947 313° West 399 459 10,000 -600 Descending Indianapolis Center
07:13AM 37.8281 -85.1936 312° West 383 441 9,900 -360 Descending Indianapolis Center
07:14AM 37.8806 -85.2675 312° West 317 365 9,300 -1,260 Descending Indianapolis Center
07:15AM 37.9356 -85.3425 313° West 292 336 7,400 -1,680 Descending Indianapolis Center
07:16AM 37.9886 -85.4178 312° West 287 330 6,000 -720 Descending Indianapolis Center
07:17AM 38.0425 -85.4925 312° West 285 328 6,000 -60 Level Indianapolis Center
07:18AM 38.0969 -85.5672 313° West 286 329 5,900  Descending Indianapolis Center
07:19AM 38.1919 -85.6025 344° North 300 345 6,000 -120 Climbing Indianapolis Center
07:20AM 38.2758 -85.6292 346° North 307 353 5,700 -1,020 Descending Indianapolis Center
07:21AM 38.3536 -85.6569 344° North 295 339 4,000 -900 Descending Indianapolis Center
07:22AM 38.3767 -85.7225 294° West 252 290 3,900 -420 Descending Indianapolis Center
07:23AM 38.3483 -85.7739 235° Southwest 217 250 3,200 -600 Descending Indianapolis Center
07:24AM 38.3022 -85.7711 177° South 191 220 2,800 -540 Descending Indianapolis Center
07:25AM 38.2594 -85.7561 165° South 169 194 2,200 -600 Descending Indianapolis Center